Time;durP1;ratioP1;P1;durP2;ratioP2;P2;SDS_P1;SDS_P2;PMS_P1;PMS_P2;Temp;Humidity;BMP_temperature;BMP_pressure;BME280_temperature;BME280_humidity;BME280_pressure;Samples;Min_cycle;Max_cycle;Signal;HPM_P1;HPM_P2
2021/03/11 00:02:19;;;;;;;22.25;14.75;;;;;;;;;;5115991;28;20219;-52
2021/03/11 00:04:48;;;;;;;21.45;13.65;;;;;;;;;;5117758;28;20271;-52
2021/03/11 00:07:16;;;;;;;24.85;13.98;;;;;;;;;;5126533;28;20193;-54
2021/03/11 00:09:50;;;;;;;19.63;15.30;;;;;;;;;;5138087;28;20265;-52
2021/03/11 00:12:16;;;;;;;24.30;15.75;;;;;;;;;;5137659;28;20186;-56
2021/03/11 00:14:47;;;;;;;100.05;64.53;;;;;;;;;;5135647;28;20185;-53
2021/03/11 00:17:32;;;;;;;44.22;31.60;;;;;;;;;;5117639;28;20189;-57
2021/03/11 00:19:59;;;;;;;75.32;48.25;;;;;;;;;;5151732;27;20240;-49
2021/03/11 00:22:26;;;;;;;52.65;33.55;;;;;;;;;;5158353;27;20188;-50
2021/03/11 00:25:15;;;;;;;28.23;17.98;;;;;;;;;;5158731;27;20263;-46
2021/03/11 00:27:43;;;;;;;24.17;14.45;;;;;;;;;;5145371;27;20211;-51
2021/03/11 00:30:10;;;;;;;21.10;13.95;;;;;;;;;;5137750;28;20193;-56
2021/03/11 00:32:38;;;;;;;26.30;13.73;;;;;;;;;;5137311;28;20200;-57
2021/03/11 00:35:05;;;;;;;18.73;13.00;;;;;;;;;;5137238;28;20208;-46
2021/03/11 00:37:32;;;;;;;21.48;14.05;;;;;;;;;;5138650;28;20185;-57
2021/03/11 00:40:00;;;;;;;18.65;12.88;;;;;;;;;;5136830;28;20659;-51
2021/03/11 00:42:27;;;;;;;24.88;15.15;;;;;;;;;;5140873;27;20226;-54
2021/03/11 00:44:55;;;;;;;22.25;14.77;;;;;;;;;;5156540;27;20207;-55
2021/03/11 00:47:49;;;;;;;23.63;13.82;;;;;;;;;;5137437;28;20200;-50
2021/03/11 00:50:17;;;;;;;21.77;14.52;;;;;;;;;;5138580;27;20219;-50
2021/03/11 00:52:44;;;;;;;23.10;13.93;;;;;;;;;;5137442;28;20177;-56
2021/03/11 00:55:22;;;;;;;21.52;12.80;;;;;;;;;;5137399;28;20339;-54
2021/03/11 00:57:49;;;;;;;18.85;12.65;;;;;;;;;;5136703;28;20206;-52
2021/03/11 01:00:19;;;;;;;19.33;14.25;;;;;;;;;;5137210;28;20290;-54
2021/03/11 01:03:04;;;;;;;21.17;13.75;;;;;;;;;;5137093;28;20204;-54
2021/03/11 01:05:33;;;;;;;22.60;12.65;;;;;;;;;;5151648;27;20231;-53
2021/03/11 01:08:00;;;;;;;22.48;12.50;;;;;;;;;;5157726;27;20212;-46
2021/03/11 01:13:31;;;;;;;19.77;12.55;;;;;;;;;;5170188;27;20221;-47
2021/03/11 01:15:59;;;;;;;17.95;12.07;;;;;;;;;;5178149;27;20199;-57
2021/03/11 01:18:26;;;;;;;22.95;13.20;;;;;;;;;;5178275;27;20285;-52
2021/03/11 01:20:53;;;;;;;24.35;15.60;;;;;;;;;;5177768;27;20203;-49
2021/03/11 01:23:27;;;;;;;21.77;15.02;;;;;;;;;;5177855;27;20191;-57
2021/03/11 01:25:53;;;;;;;22.60;14.20;;;;;;;;;;5189593;27;20262;-53
2021/03/11 01:28:20;;;;;;;26.73;17.27;;;;;;;;;;5127198;28;20216;-56
2021/03/11 01:30:47;;;;;;;25.85;14.02;;;;;;;;;;5115665;28;20197;-54
2021/03/11 01:33:15;;;;;;;25.40;15.40;;;;;;;;;;5115547;28;20205;-48
2021/03/11 01:35:52;;;;;;;18.20;11.57;;;;;;;;;;5122785;28;20221;-56
2021/03/11 01:38:18;;;;;;;22.00;13.05;;;;;;;;;;5136302;28;20537;-55
2021/03/11 01:40:45;;;;;;;23.80;14.82;;;;;;;;;;5133565;28;20277;-56
2021/03/11 01:43:23;;;;;;;17.88;11.30;;;;;;;;;;5128462;28;20192;-54
2021/03/11 01:45:50;;;;;;;16.83;12.45;;;;;;;;;;5135930;28;20219;-53
2021/03/11 01:48:18;;;;;;;21.65;13.60;;;;;;;;;;5135901;28;20197;-55
2021/03/11 01:50:46;;;;;;;14.02;9.27;;;;;;;;;;5135664;28;20185;-47
2021/03/11 01:53:13;;;;;;;20.23;13.75;;;;;;;;;;5117220;28;20189;-57
2021/03/11 01:55:40;;;;;;;15.10;10.82;;;;;;;;;;5116109;28;20205;-52
2021/03/11 01:58:07;;;;;;;25.80;14.55;;;;;;;;;;5115321;28;20213;-56
2021/03/11 02:00:34;;;;;;;10.70;7.53;;;;;;;;;;5128035;28;20220;-56
2021/03/11 02:03:01;;;;;;;15.20;8.75;;;;;;;;;;5135494;27;20185;-55
2021/03/11 02:05:34;;;;;;;16.90;8.23;;;;;;;;;;5135635;28;20216;-49
2021/03/11 02:08:01;;;;;;;13.98;9.65;;;;;;;;;;5135788;28;20204;-54
2021/03/11 02:10:28;;;;;;;12.68;9.15;;;;;;;;;;5135760;28;20230;-53
2021/03/11 02:13:10;;;;;;;14.48;10.02;;;;;;;;;;5130913;28;20193;-52
2021/03/11 02:15:39;;;;;;;13.05;7.55;;;;;;;;;;5115201;28;20201;-56
2021/03/11 02:18:08;;;;;;;23.98;15.18;;;;;;;;;;5115518;28;20199;-53
2021/03/11 02:23:59;;;;;;;22.85;15.43;;;;;;;;;;5115532;28;20204;-57
2021/03/11 02:26:40;;;;;;;16.20;11.35;;;;;;;;;;5115129;28;20228;-56
2021/03/11 02:29:30;;;;;;;9.70;6.90;;;;;;;;;;5135475;28;20196;-50
2021/03/11 02:31:59;;;;;;;9.07;4.72;;;;;;;;;;5135286;28;20197;-52
2021/03/11 02:34:29;;;;;;;11.45;6.90;;;;;;;;;;5135535;28;20268;-47
2021/03/11 02:36:57;;;;;;;6.68;4.43;;;;;;;;;;5136001;28;20193;-51
2021/03/11 02:39:24;;;;;;;8.52;5.82;;;;;;;;;;5135493;28;20205;-58
2021/03/11 02:41:53;;;;;;;9.88;6.18;;;;;;;;;;5135477;28;20280;-52
2021/03/11 02:44:37;;;;;;;9.80;7.07;;;;;;;;;;5135529;28;20206;-53
2021/03/11 02:47:05;;;;;;;21.70;16.42;;;;;;;;;;5135521;28;20207;-52
2021/03/11 02:49:33;;;;;;;11.88;6.70;;;;;;;;;;5118115;28;20192;-54
2021/03/11 02:52:01;;;;;;;8.02;5.53;;;;;;;;;;5135285;28;20188;-51
2021/03/11 02:54:28;;;;;;;9.40;6.68;;;;;;;;;;5135384;28;20196;-53
2021/03/11 02:56:58;;;;;;;9.65;5.97;;;;;;;;;;5135089;28;20189;-56
2021/03/11 02:59:27;;;;;;;7.20;4.93;;;;;;;;;;5135919;28;20196;-56
2021/03/11 03:01:55;;;;;;;7.65;5.40;;;;;;;;;;5135393;28;20248;-53
2021/03/11 03:04:23;;;;;;;19.10;12.10;;;;;;;;;;5135638;28;20201;-51
2021/03/11 03:06:50;;;;;;;8.98;5.53;;;;;;;;;;5134920;28;20209;-44
2021/03/11 03:09:18;;;;;;;11.10;6.85;;;;;;;;;;5135488;28;20204;-50
2021/03/11 03:11:52;;;;;;;5.28;3.95;;;;;;;;;;5135084;28;20185;-48
2021/03/11 03:14:19;;;;;;;27.83;19.42;;;;;;;;;;5135633;28;20189;-56
2021/03/11 03:16:46;;;;;;;7.65;4.75;;;;;;;;;;5134702;28;20214;-54
2021/03/11 03:19:13;;;;;;;9.10;6.55;;;;;;;;;;5135565;28;20184;-51
2021/03/11 03:21:43;;;;;;;8.35;5.78;;;;;;;;;;5135071;28;20243;-51
2021/03/11 03:24:29;;;;;;;12.15;8.60;;;;;;;;;;5135008;28;20193;-51
2021/03/11 03:26:56;;;;;;;8.80;5.15;;;;;;;;;;5135383;28;20228;-56
2021/03/11 03:29:23;;;;;;;5.78;4.30;;;;;;;;;;5135401;28;20204;-57
2021/03/11 03:31:55;;;;;;;7.10;3.70;;;;;;;;;;5135022;28;20188;-57
2021/03/11 03:34:22;;;;;;;7.45;4.40;;;;;;;;;;5117156;28;20197;-57
2021/03/11 03:36:50;;;;;;;14.38;9.35;;;;;;;;;;5135346;28;20205;-52
2021/03/11 03:39:26;;;;;;;8.25;5.78;;;;;;;;;;5138625;28;20200;-53
2021/03/11 03:41:55;;;;;;;10.05;4.95;;;;;;;;;;5138939;28;20359;-54
2021/03/11 03:44:23;;;;;;;7.70;4.60;;;;;;;;;;5138706;28;20176;-56
2021/03/11 03:47:01;;;;;;;9.82;6.90;;;;;;;;;;5138495;28;20229;-54
2021/03/11 03:49:28;;;;;;;19.92;13.38;;;;;;;;;;5138054;28;20259;-54
2021/03/11 03:51:56;;;;;;;11.15;8.40;;;;;;;;;;5138065;28;20196;-57
2021/03/11 03:54:25;;;;;;;11.18;6.45;;;;;;;;;;5138076;28;20203;-55
2021/03/11 03:56:52;;;;;;;10.35;6.75;;;;;;;;;;5137871;28;20200;-57
2021/03/11 03:59:31;;;;;;;9.07;5.60;;;;;;;;;;5138258;28;20177;-49
2021/03/11 04:01:59;;;;;;;14.57;9.10;;;;;;;;;;5137563;28;20208;-56
2021/03/11 04:04:30;;;;;;;10.43;7.38;;;;;;;;;;5138411;28;20192;-55
2021/03/11 04:06:58;;;;;;;12.90;6.90;;;;;;;;;;5137959;28;20201;-52
2021/03/11 04:09:26;;;;;;;13.00;8.48;;;;;;;;;;5138374;28;20227;-49
2021/03/11 04:11:53;;;;;;;11.30;5.43;;;;;;;;;;5138466;28;20184;-50
2021/03/11 04:14:33;;;;;;;8.90;5.32;;;;;;;;;;5137536;28;20227;-55
2021/03/11 04:17:00;;;;;;;9.68;6.13;;;;;;;;;;5138192;28;20209;-56
2021/03/11 04:19:27;;;;;;;8.57;4.55;;;;;;;;;;5138114;28;20228;-51
2021/03/11 04:21:54;;;;;;;9.50;5.03;;;;;;;;;;5138233;28;20216;-47
2021/03/11 04:24:22;;;;;;;6.55;4.30;;;;;;;;;;5137925;28;20204;-53
2021/03/11 04:26:49;;;;;;;8.02;5.32;;;;;;;;;;5137927;28;20261;-53
2021/03/11 04:29:17;;;;;;;19.55;12.60;;;;;;;;;;5138047;28;20200;-57
2021/03/11 04:31:45;;;;;;;10.85;6.70;;;;;;;;;;5137322;28;20278;-56
2021/03/11 04:34:12;;;;;;;9.55;5.78;;;;;;;;;;5137721;28;20204;-51
2021/03/11 04:37:07;;;;;;;9.65;6.07;;;;;;;;;;5137710;28;20204;-53
2021/03/11 04:39:35;;;;;;;7.03;4.05;;;;;;;;;;5140116;27;20305;-56
2021/03/11 04:42:04;;;;;;;10.00;6.78;;;;;;;;;;5138338;28;20228;-58
2021/03/11 04:44:33;;;;;;;5.97;3.90;;;;;;;;;;5138198;28;20192;-56
2021/03/11 04:47:00;;;;;;;7.15;4.50;;;;;;;;;;5145979;27;20219;-58
2021/03/11 04:49:38;;;;;;;6.65;4.25;;;;;;;;;;5157660;27;20188;-59
2021/03/11 04:52:05;;;;;;;7.05;5.10;;;;;;;;;;5158177;27;20220;-52
2021/03/11 04:54:32;;;;;;;5.28;3.85;;;;;;;;;;5157983;27;20200;-55
2021/03/11 04:57:02;;;;;;;7.93;3.60;;;;;;;;;;5158010;27;20261;-48
2021/03/11 04:59:34;;;;;;;7.85;5.30;;;;;;;;;;5158386;27;20196;-53
2021/03/11 05:02:11;;;;;;;8.57;5.03;;;;;;;;;;5157751;27;20200;-52
2021/03/11 05:07:42;;;;;;;6.13;3.22;;;;;;;;;;5157079;27;20201;-52
2021/03/11 05:10:10;;;;;;;7.72;5.13;;;;;;;;;;5156448;27;20214;-47
2021/03/11 05:12:39;;;;;;;9.88;4.65;;;;;;;;;;5157343;27;20287;-55
2021/03/11 05:15:06;;;;;;;6.15;3.38;;;;;;;;;;5157216;27;20207;-55
2021/03/11 05:17:33;;;;;;;5.60;3.40;;;;;;;;;;5157277;27;20214;-54
2021/03/11 05:20:04;;;;;;;7.65;4.90;;;;;;;;;;5157445;27;20427;-54
2021/03/11 05:22:44;;;;;;;8.15;3.88;;;;;;;;;;5155136;27;20188;-55
2021/03/11 05:25:12;;;;;;;5.00;2.95;;;;;;;;;;5156746;27;20214;-51
2021/03/11 05:27:41;;;;;;;6.17;3.63;;;;;;;;;;5156369;27;20192;-53
2021/03/11 05:30:08;;;;;;;7.75;5.50;;;;;;;;;;5156702;27;20441;-49
2021/03/11 05:33:00;;;;;;;5.30;3.70;;;;;;;;;;5157010;27;20208;-51
2021/03/11 05:35:26;;;;;;;7.70;4.22;;;;;;;;;;5162840;27;20223;-50
2021/03/11 05:37:53;;;;;;;5.97;3.60;;;;;;;;;;5177586;27;20210;-52
2021/03/11 05:40:23;;;;;;;7.00;3.97;;;;;;;;;;5177100;27;20198;-50
2021/03/11 05:42:51;;;;;;;4.65;3.13;;;;;;;;;;5175809;27;20218;-54
2021/03/11 05:45:34;;;;;;;5.35;3.15;;;;;;;;;;5177480;27;20188;-53
2021/03/11 05:48:01;;;;;;;7.10;5.55;;;;;;;;;;5177008;27;20263;-54
2021/03/11 05:50:29;;;;;;;7.68;3.05;;;;;;;;;;5170690;27;20200;-58
2021/03/11 05:53:14;;;;;;;7.13;4.75;;;;;;;;;;5170653;27;20240;-47
2021/03/11 05:55:41;;;;;;;7.18;4.10;;;;;;;;;;5156511;27;20245;-61
2021/03/11 05:58:10;;;;;;;5.53;3.20;;;;;;;;;;5143541;27;20262;-50
2021/03/11 06:00:46;;;;;;;7.95;4.70;;;;;;;;;;5144749;27;20216;-50
2021/03/11 06:03:13;;;;;;;7.32;5.15;;;;;;;;;;5137092;27;20185;-58
2021/03/11 06:05:40;;;;;;;5.68;3.50;;;;;;;;;;5135963;28;20192;-52
2021/03/11 06:08:09;;;;;;;13.27;8.80;;;;;;;;;;5136915;27;20219;-50
2021/03/11 06:10:37;;;;;;;36.73;27.07;;;;;;;;;;5156401;27;20203;-58
2021/03/11 06:13:04;;;;;;;33.80;23.55;;;;;;;;;;5142087;27;20461;-55
2021/03/11 06:16:04;;;;;;;37.43;28.23;;;;;;;;;;5150148;27;20201;-58
2021/03/11 06:18:33;;;;;;;17.25;11.13;;;;;;;;;;5150524;27;20501;-51
2021/03/11 06:21:01;;;;;;;11.40;7.90;;;;;;;;;;5139460;27;20245;-54
2021/03/11 06:23:41;;;;;;;7.53;4.23;;;;;;;;;;5150685;27;20567;-57
2021/03/11 06:26:08;;;;;;;7.45;4.55;;;;;;;;;;5155270;27;20456;-53
2021/03/11 06:28:50;;;;;;;6.18;3.78;;;;;;;;;;5139973;28;20208;-52
2021/03/11 06:31:20;;;;;;;7.75;4.60;;;;;;;;;;5136280;27;20196;-50
2021/03/11 06:33:50;;;;;;;8.40;5.60;;;;;;;;;;5140363;28;20196;-54
2021/03/11 06:36:18;;;;;;;4.78;3.17;;;;;;;;;;5155087;28;20225;-57
2021/03/11 06:38:46;;;;;;;7.55;4.18;;;;;;;;;;5138461;28;20221;-56
2021/03/11 06:41:13;;;;;;;6.25;3.58;;;;;;;;;;5134586;28;20235;-56
2021/03/11 06:43:53;;;;;;;4.95;3.20;;;;;;;;;;5134510;28;20197;-59
2021/03/11 06:46:35;;;;;;;5.43;3.25;;;;;;;;;;5135337;28;20204;-56
2021/03/11 06:49:09;;;;;;;4.03;2.53;;;;;;;;;;5142586;27;20188;-57
2021/03/11 06:51:37;;;;;;;5.25;3.45;;;;;;;;;;5156544;28;20187;-53
2021/03/11 06:54:05;;;;;;;5.40;3.77;;;;;;;;;;5140934;28;20197;-49
2021/03/11 06:56:32;;;;;;;7.83;4.10;;;;;;;;;;5142433;28;20453;-55
2021/03/11 06:59:00;;;;;;;5.33;2.90;;;;;;;;;;5135997;28;20492;-57
2021/03/11 07:01:31;;;;;;;5.37;2.97;;;;;;;;;;5135234;28;20543;-58
2021/03/11 07:04:02;;;;;;;5.00;3.40;;;;;;;;;;5135492;28;20469;-60
2021/03/11 07:06:30;;;;;;;4.00;2.67;;;;;;;;;;5135283;28;20525;-56
2021/03/11 07:08:58;;;;;;;5.15;2.85;;;;;;;;;;5135379;28;20514;-57
2021/03/11 07:11:29;;;;;;;4.50;2.30;;;;;;;;;;5136731;28;20213;-53
2021/03/11 07:14:04;;;;;;;2.80;1.90;;;;;;;;;;5138889;28;20442;-51
2021/03/11 07:16:35;;;;;;;3.00;2.10;;;;;;;;;;5140487;28;20514;-52
2021/03/11 07:19:20;;;;;;;5.07;2.75;;;;;;;;;;5156327;27;20477;-55
2021/03/11 07:21:55;;;;;;;4.10;2.17;;;;;;;;;;5160302;27;20223;-50
2021/03/11 07:24:32;;;;;;;3.27;2.03;;;;;;;;;;5160444;27;20436;-55
2021/03/11 07:27:00;;;;;;;2.83;1.30;;;;;;;;;;5159999;27;20439;-60
2021/03/11 07:29:30;;;;;;;4.27;2.50;;;;;;;;;;5160288;27;20454;-56
2021/03/11 07:31:57;;;;;;;3.63;1.67;;;;;;;;;;5159969;27;20453;-53
2021/03/11 07:34:26;;;;;;;5.40;2.97;;;;;;;;;;5159998;27;20433;-57
2021/03/11 07:40:01;;;;;;;3.70;1.97;;;;;;;;;;5158433;27;20443;-57
2021/03/11 07:42:29;;;;;;;3.60;2.17;;;;;;;;;;5159276;27;20457;-50
2021/03/11 07:44:57;;;;;;;2.80;1.70;;;;;;;;;;5158283;27;20469;-58
2021/03/11 07:47:28;;;;;;;4.93;2.27;;;;;;;;;;5160105;27;20443;-53
2021/03/11 07:49:55;;;;;;;3.97;2.03;;;;;;;;;;5158038;27;20441;-58
2021/03/11 07:52:33;;;;;;;3.07;2.00;;;;;;;;;;5146992;27;20475;-54
2021/03/11 07:55:03;;;;;;;6.00;2.33;;;;;;;;;;5137901;28;20458;-48
2021/03/11 07:57:32;;;;;;;3.40;2.20;;;;;;;;;;5138621;28;20461;-56
2021/03/11 08:00:08;;;;;;;4.07;2.63;;;;;;;;;;5137711;28;20449;-50
2021/03/11 08:02:36;;;;;;;7.50;2.93;;;;;;;;;;5137608;28;20294;-58
2021/03/11 08:05:04;;;;;;;4.80;2.93;;;;;;;;;;5138421;28;20442;-52
2021/03/11 08:10:40;;;;;;;3.80;2.23;;;;;;;;;;5151242;27;20478;-55
2021/03/11 08:13:26;;;;;;;4.57;3.13;;;;;;;;;;5158284;27;20460;-54
2021/03/11 08:15:53;;;;;;;4.90;2.43;;;;;;;;;;5158282;27;20445;-55
2021/03/11 08:18:35;;;;;;;6.07;2.90;;;;;;;;;;5157866;27;20458;-56
2021/03/11 08:21:03;;;;;;;6.40;4.10;;;;;;;;;;5156706;27;20495;-47
2021/03/11 08:23:31;;;;;;;3.87;2.43;;;;;;;;;;5156332;27;20445;-58
2021/03/11 08:25:59;;;;;;;4.13;2.40;;;;;;;;;;5155604;27;20480;-55
2021/03/11 08:28:40;;;;;;;4.90;3.03;;;;;;;;;;5156676;27;20498;-58
2021/03/11 08:31:08;;;;;;;5.33;3.23;;;;;;;;;;5152771;27;20557;-59
2021/03/11 08:33:56;;;;;;;4.20;2.43;;;;;;;;;;5147957;27;20457;-57
2021/03/11 08:36:40;;;;;;;5.03;2.73;;;;;;;;;;5157058;27;20430;-50
2021/03/11 08:39:22;;;;;;;5.23;2.80;;;;;;;;;;5157701;27;20406;-54
2021/03/11 08:41:50;;;;;;;3.60;2.20;;;;;;;;;;5157162;27;20488;-56
2021/03/11 08:44:37;;;;;;;5.40;2.47;;;;;;;;;;5157865;27;20442;-59
2021/03/11 08:47:10;;;;;;;3.60;2.43;;;;;;;;;;5156618;27;20437;-55
2021/03/11 08:49:38;;;;;;;4.70;2.70;;;;;;;;;;5156868;27;20597;-54
2021/03/11 08:52:07;;;;;;;5.33;2.63;;;;;;;;;;5157413;27;20462;-56
2021/03/11 08:54:34;;;;;;;4.07;2.43;;;;;;;;;;5157514;27;20515;-60
2021/03/11 08:57:02;;;;;;;3.90;2.17;;;;;;;;;;5158081;27;20430;-56
2021/03/11 08:59:47;;;;;;;6.17;3.30;;;;;;;;;;5156863;27;20418;-49
2021/03/11 09:02:33;;;;;;;3.80;2.33;;;;;;;;;;5143849;27;20470;-54
2021/03/11 09:05:00;;;;;;;4.00;2.47;;;;;;;;;;5135842;28;20619;-58
2021/03/11 09:07:32;;;;;;;6.73;3.27;;;;;;;;;;5136028;28;20470;-58
2021/03/11 09:09:59;;;;;;;4.07;2.97;;;;;;;;;;5136532;28;20532;-61
2021/03/11 09:12:50;;;;;;;4.97;3.03;;;;;;;;;;5135980;28;20517;-55
2021/03/11 09:15:18;;;;;;;4.00;2.30;;;;;;;;;;5133970;28;20510;-58
2021/03/11 09:17:46;;;;;;;4.47;1.97;;;;;;;;;;5136127;28;20466;-51
2021/03/11 09:20:16;;;;;;;5.27;2.13;;;;;;;;;;5133095;28;20474;-53
2021/03/11 09:22:48;;;;;;;3.37;1.90;;;;;;;;;;5134509;28;20474;-55
2021/03/11 09:25:21;;;;;;;3.17;1.70;;;;;;;;;;5133774;28;20604;-52
2021/03/11 09:27:52;;;;;;;2.90;2.03;;;;;;;;;;5134312;28;20509;-57
2021/03/11 09:30:22;;;;;;;2.90;1.50;;;;;;;;;;5120933;28;20478;-55
2021/03/11 09:32:49;;;;;;;5.13;2.00;;;;;;;;;;5113131;28;20439;-55
2021/03/11 09:35:16;;;;;;;4.30;2.20;;;;;;;;;;5122391;28;20514;-50
2021/03/11 09:37:50;;;;;;;8.00;2.90;;;;;;;;;;5133833;28;20431;-47
2021/03/11 09:40:29;;;;;;;6.50;2.13;;;;;;;;;;5134469;28;20451;-52
2021/03/11 09:43:14;;;;;;;10.17;2.17;;;;;;;;;;5134288;28;20442;-56
2021/03/11 09:45:48;;;;;;;7.50;2.13;;;;;;;;;;5129313;28;20469;-56
2021/03/11 09:48:21;;;;;;;13.57;1.97;;;;;;;;;;5130163;28;20466;-54
2021/03/11 09:51:07;;;;;;;12.63;3.43;;;;;;;;;;5133583;28;20442;-54
2021/03/11 09:53:41;;;;;;;6.80;2.57;;;;;;;;;;5134076;28;20841;-55
2021/03/11 09:56:12;;;;;;;8.50;2.20;;;;;;;;;;5116554;28;20468;-56
2021/03/11 09:58:50;;;;;;;13.30;2.90;;;;;;;;;;5100857;28;20453;-57
2021/03/11 10:01:27;;;;;;;12.23;2.83;;;;;;;;;;5128271;28;20512;-54
2021/03/11 10:03:54;;;;;;;8.07;2.40;;;;;;;;;;5123340;28;20212;-56
2021/03/11 10:06:22;;;;;;;13.43;3.63;;;;;;;;;;5127142;28;20460;-59
2021/03/11 10:08:53;;;;;;;11.20;2.67;;;;;;;;;;5122431;28;20309;-52
2021/03/11 10:11:23;;;;;;;15.00;2.73;;;;;;;;;;5129043;28;20446;-53
2021/03/11 10:13:53;;;;;;;15.02;3.45;;;;;;;;;;5133537;28;20938;-45
2021/03/11 10:16:38;;;;;;;13.60;2.60;;;;;;;;;;5120160;28;20201;-54
2021/03/11 10:19:12;;;;;;;10.00;2.57;;;;;;;;;;5121222;28;20446;-54
2021/03/11 10:21:49;;;;;;;10.63;2.30;;;;;;;;;;5131502;28;20482;-46
2021/03/11 10:24:30;;;;;;;8.13;2.33;;;;;;;;;;5133842;28;20449;-48
2021/03/11 10:26:57;;;;;;;9.05;2.42;;;;;;;;;;5125477;28;20462;-57
2021/03/11 10:29:27;;;;;;;12.90;5.93;;;;;;;;;;5132181;28;20273;-50
2021/03/11 10:32:18;;;;;;;14.60;2.97;;;;;;;;;;5128461;28;20461;-59
2021/03/11 10:34:47;;;;;;;5.60;2.37;;;;;;;;;;5114535;28;20462;-49
2021/03/11 10:37:14;;;;;;;16.97;2.83;;;;;;;;;;5115813;28;20503;-54
2021/03/11 10:39:52;;;;;;;9.20;2.23;;;;;;;;;;5128587;28;20502;-53
2021/03/11 10:42:20;;;;;;;35.17;3.93;;;;;;;;;;5116546;28;20466;-54
2021/03/11 10:45:04;;;;;;;11.07;2.97;;;;;;;;;;5131692;28;20458;-56
2021/03/11 10:47:31;;;;;;;7.00;2.33;;;;;;;;;;5116468;28;20470;-53
2021/03/11 10:49:59;;;;;;;9.83;2.87;;;;;;;;;;5133963;28;20430;-59
2021/03/11 10:52:47;;;;;;;7.73;1.87;;;;;;;;;;5120236;28;20434;-58
2021/03/11 10:55:29;;;;;;;9.27;1.90;;;;;;;;;;5136992;28;20443;-54
2021/03/11 10:58:20;;;;;;;10.90;3.20;;;;;;;;;;5126874;28;20440;-54
2021/03/11 11:00:47;;;;;;;5.63;2.17;;;;;;;;;;5118283;28;20458;-57
2021/03/11 11:03:14;;;;;;;9.67;2.30;;;;;;;;;;5116808;28;20488;-57
2021/03/11 11:05:48;;;;;;;6.20;1.70;;;;;;;;;;5116596;28;20561;-55
2021/03/11 11:08:15;;;;;;;11.67;2.43;;;;;;;;;;5116457;28;20470;-57
2021/03/11 11:10:43;;;;;;;5.73;1.53;;;;;;;;;;5133039;28;20423;-59
2021/03/11 11:13:12;;;;;;;4.67;1.67;;;;;;;;;;5137066;28;20465;-55
2021/03/11 11:15:44;;;;;;;11.20;1.93;;;;;;;;;;5135798;28;20490;-54
2021/03/11 11:18:13;;;;;;;7.37;2.20;;;;;;;;;;5136791;28;20494;-56
2021/03/11 11:20:53;;;;;;;9.90;2.23;;;;;;;;;;5136242;28;20506;-57
2021/03/11 11:23:23;;;;;;;8.20;1.90;;;;;;;;;;5147015;27;20537;-61
2021/03/11 11:25:51;;;;;;;7.60;2.53;;;;;;;;;;5157428;27;20460;-49
2021/03/11 11:28:35;;;;;;;9.90;1.83;;;;;;;;;;5156572;27;20449;-58
2021/03/11 11:31:02;;;;;;;6.60;1.90;;;;;;;;;;5136835;28;20479;-56
2021/03/11 11:33:29;;;;;;;9.80;2.20;;;;;;;;;;5138082;27;20514;-57
2021/03/11 11:35:58;;;;;;;5.63;1.30;;;;;;;;;;5135874;28;20547;-57
2021/03/11 11:38:25;;;;;;;8.53;2.67;;;;;;;;;;5155703;27;20441;-57
2021/03/11 11:40:52;;;;;;;9.03;2.13;;;;;;;;;;5156925;27;20449;-54
2021/03/11 11:43:21;;;;;;;9.80;2.47;;;;;;;;;;5139040;27;20464;-56
2021/03/11 11:45:49;;;;;;;8.40;2.13;;;;;;;;;;5140452;27;20454;-56
2021/03/11 11:48:18;;;;;;;10.00;2.13;;;;;;;;;;5143642;27;20485;-59
2021/03/11 11:51:07;;;;;;;8.03;2.10;;;;;;;;;;5147228;27;20438;-51
2021/03/11 11:53:35;;;;;;;6.93;2.27;;;;;;;;;;5148770;27;20456;-55
2021/03/11 11:56:03;;;;;;;5.87;1.93;;;;;;;;;;5136182;28;20434;-59
2021/03/11 11:58:30;;;;;;;6.70;2.00;;;;;;;;;;5142129;27;20464;-58
2021/03/11 12:01:03;;;;;;;11.63;2.13;;;;;;;;;;5149665;27;20629;-58
2021/03/11 12:03:50;;;;;;;6.83;2.50;;;;;;;;;;5148797;27;20453;-52
2021/03/11 12:06:18;;;;;;;7.07;2.10;;;;;;;;;;5150484;27;20479;-57
2021/03/11 12:08:49;;;;;;;12.43;2.73;;;;;;;;;;5143179;27;20450;-56
2021/03/11 12:11:16;;;;;;;9.90;2.40;;;;;;;;;;5149466;27;20458;-58
2021/03/11 12:13:55;;;;;;;11.93;3.20;;;;;;;;;;5155939;27;20464;-59
2021/03/11 12:16:45;;;;;;;14.30;3.00;;;;;;;;;;5154404;27;20730;-49
2021/03/11 12:19:13;;;;;;;12.77;2.70;;;;;;;;;;5148159;27;20496;-55
2021/03/11 12:21:49;;;;;;;13.43;4.37;;;;;;;;;;5155426;27;20474;-53
2021/03/11 12:24:19;;;;;;;11.80;2.30;;;;;;;;;;5135374;28;20468;-53
2021/03/11 12:26:48;;;;;;;19.57;3.50;;;;;;;;;;5135200;28;20423;-55
2021/03/11 12:29:29;;;;;;;6.27;1.87;;;;;;;;;;5135820;28;20434;-56
2021/03/11 12:32:16;;;;;;;6.63;2.73;;;;;;;;;;5135168;28;20458;-60
2021/03/11 12:34:43;;;;;;;12.40;2.90;;;;;;;;;;5138356;27;20800;-54
2021/03/11 12:37:15;;;;;;;11.20;3.07;;;;;;;;;;5153961;27;20535;-53
2021/03/11 12:39:43;;;;;;;18.97;4.33;;;;;;;;;;5154610;27;20434;-57
2021/03/11 12:42:12;;;;;;;28.50;3.27;;;;;;;;;;5155864;27;20488;-58
2021/03/11 12:44:43;;;;;;;10.00;2.47;;;;;;;;;;5147981;27;20449;-55
2021/03/11 12:47:12;;;;;;;18.73;3.87;;;;;;;;;;5146824;27;20458;-56
2021/03/11 12:49:45;;;;;;;12.53;3.10;;;;;;;;;;5155027;27;20534;-56
2021/03/11 12:52:43;;;;;;;15.63;2.83;;;;;;;;;;5156342;27;20458;-55
2021/03/11 12:55:12;;;;;;;23.03;3.33;;;;;;;;;;5175944;27;20480;-51
2021/03/11 12:57:40;;;;;;;10.40;2.40;;;;;;;;;;5159935;27;20469;-60
2021/03/11 13:00:11;;;;;;;8.33;2.83;;;;;;;;;;5179384;27;20471;-57
2021/03/11 13:02:39;;;;;;;9.60;2.17;;;;;;;;;;5179085;27;20535;-60
2021/03/11 13:05:07;;;;;;;7.60;2.83;;;;;;;;;;5179224;27;20465;-53
2021/03/11 13:07:36;;;;;;;11.50;3.00;;;;;;;;;;5176712;27;20451;-56
2021/03/11 13:10:10;;;;;;;33.73;2.77;;;;;;;;;;5165657;27;20458;-57
2021/03/11 13:12:37;;;;;;;16.67;2.93;;;;;;;;;;5164379;27;20521;-59
2021/03/11 13:15:05;;;;;;;10.93;2.07;;;;;;;;;;5178540;27;20452;-51
2021/03/11 13:18:00;;;;;;;9.17;2.50;;;;;;;;;;5179140;27;20469;-58
2021/03/11 13:20:30;;;;;;;7.77;2.33;;;;;;;;;;5166625;27;20492;-58
2021/03/11 13:23:06;;;;;;;9.00;2.50;;;;;;;;;;5157922;27;20481;-57
2021/03/11 13:25:52;;;;;;;10.67;2.30;;;;;;;;;;5152611;27;20490;-54
2021/03/11 13:28:19;;;;;;;7.40;2.30;;;;;;;;;;5136319;28;20454;-53
2021/03/11 13:30:52;;;;;;;13.70;2.50;;;;;;;;;;5144375;27;20436;-55
2021/03/11 13:33:19;;;;;;;9.53;2.80;;;;;;;;;;5158514;27;20529;-53
2021/03/11 13:35:46;;;;;;;10.20;2.77;;;;;;;;;;5156681;27;20449;-58
2021/03/11 13:38:30;;;;;;;10.43;2.20;;;;;;;;;;5155113;27;20478;-59
2021/03/11 13:40:57;;;;;;;9.70;3.77;;;;;;;;;;5156133;27;20457;-59
2021/03/11 13:43:26;;;;;;;10.37;2.93;;;;;;;;;;5156069;27;20460;-57
2021/03/11 13:46:04;;;;;;;8.83;2.80;;;;;;;;;;5140726;27;20466;-53
2021/03/11 13:48:46;;;;;;;9.20;2.67;;;;;;;;;;5138611;27;20533;-57
2021/03/11 13:51:16;;;;;;;10.53;2.47;;;;;;;;;;5134804;28;20634;-55
2021/03/11 13:54:18;;;;;;;11.33;2.73;;;;;;;;;;5153387;27;20437;-56
2021/03/11 13:56:46;;;;;;;16.00;2.20;;;;;;;;;;5137154;28;20476;-54
2021/03/11 13:59:15;;;;;;;6.90;1.80;;;;;;;;;;5153817;27;20442;-57
2021/03/11 14:01:42;;;;;;;10.37;2.70;;;;;;;;;;5156445;27;20516;-56
2021/03/11 14:04:09;;;;;;;8.00;2.20;;;;;;;;;;5156657;27;20456;-60
2021/03/11 14:07:02;;;;;;;6.30;1.60;;;;;;;;;;5155177;27;20457;-53
2021/03/11 14:09:30;;;;;;;15.20;3.70;;;;;;;;;;5150207;27;20501;-55
2021/03/11 14:12:00;;;;;;;11.63;2.60;;;;;;;;;;5156592;27;20452;-60
2021/03/11 14:14:28;;;;;;;23.93;3.73;;;;;;;;;;5156804;27;20479;-55
2021/03/11 14:17:01;;;;;;;18.33;2.77;;;;;;;;;;5157048;27;20437;-59
2021/03/11 14:22:40;;;;;;;20.60;3.30;;;;;;;;;;5151810;27;20476;-52
2021/03/11 14:25:14;;;;;;;19.03;2.00;;;;;;;;;;5149321;27;20465;-55
2021/03/11 14:28:10;;;;;;;12.13;2.00;;;;;;;;;;5146230;27;20453;-56
2021/03/11 14:30:38;;;;;;;15.10;2.20;;;;;;;;;;5151922;27;20461;-54
2021/03/11 14:33:15;;;;;;;21.67;4.13;;;;;;;;;;5152575;27;20513;-55
2021/03/11 14:35:49;;;;;;;9.13;2.20;;;;;;;;;;5156298;28;20464;-61
2021/03/11 14:38:16;;;;;;;6.93;2.03;;;;;;;;;;5143985;28;20444;-54
2021/03/11 14:40:46;;;;;;;35.47;4.23;;;;;;;;;;5154273;27;20430;-52
2021/03/11 14:43:26;;;;;;;13.47;3.73;;;;;;;;;;5149726;28;20466;-55
2021/03/11 14:45:58;;;;;;;13.20;2.60;;;;;;;;;;5157025;27;20453;-58
2021/03/11 14:48:50;;;;;;;12.63;3.03;;;;;;;;;;5151718;27;20462;-58
2021/03/11 14:51:20;;;;;;;19.83;4.07;;;;;;;;;;5153086;27;20450;-60
2021/03/11 14:53:49;;;;;;;9.10;2.63;;;;;;;;;;5136308;28;20430;-56
2021/03/11 14:56:26;;;;;;;10.23;2.70;;;;;;;;;;5137620;28;20452;-58
2021/03/11 14:58:53;;;;;;;18.33;3.20;;;;;;;;;;5138129;28;20446;-53
2021/03/11 15:01:23;;;;;;;12.93;2.27;;;;;;;;;;5141031;28;20479;-60
2021/03/11 15:03:51;;;;;;;11.70;3.63;;;;;;;;;;5148072;27;20452;-55
2021/03/11 15:06:18;;;;;;;12.90;2.40;;;;;;;;;;5140160;28;20458;-59
2021/03/11 15:08:45;;;;;;;8.40;2.03;;;;;;;;;;5135837;28;20434;-56
2021/03/11 15:11:32;;;;;;;14.00;2.57;;;;;;;;;;5154788;27;20453;-53
2021/03/11 15:13:59;;;;;;;8.53;2.07;;;;;;;;;;5147495;28;20454;-59
2021/03/11 15:16:33;;;;;;;11.53;2.80;;;;;;;;;;5156174;28;20450;-54
2021/03/11 15:19:04;;;;;;;13.13;2.03;;;;;;;;;;5142692;27;20445;-57
2021/03/11 15:21:31;;;;;;;9.57;2.30;;;;;;;;;;5156497;28;20520;-55
2021/03/11 15:24:18;;;;;;;12.63;2.30;;;;;;;;;;5156006;28;20602;-56